Time;durP1;ratioP1;P1;durP2;ratioP2;P2;SDS_P1;SDS_P2;PMS_P1;PMS_P2;Temp;Humidity;BMP_temperature;BMP_pressure;BME280_temperature;BME280_humidity;BME280_pressure;Samples;Min_cycle;Max_cycle;Signal;HPM_P1;HPM_P2
2020/12/17 00:00:24;;;;;;;0.00;0.00;;;10.50;89.60;;;;;;4113996;27;20086;-89
2020/12/17 00:02:57;;;;;;;0.00;0.00;;;10.50;89.60;;;;;;4086928;27;20090;-88
2020/12/17 00:05:23;;;;;;;0.00;0.00;;;10.50;89.70;;;;;;4089958;35;20409;-89
2020/12/17 00:07:55;;;;;;;0.05;0.00;;;10.50;89.70;;;;;;4105397;27;20071;-88
2020/12/17 00:10:25;;;;;;;0.55;0.25;;;10.40;89.70;;;;;;4112635;34;20036;-90
2020/12/17 00:12:54;;;;;;;0.10;0.00;;;10.50;89.80;;;;;;4121396;27;20051;-88
2020/12/17 00:15:28;;;;;;;0.30;0.00;;;10.50;89.90;;;;;;4114271;27;20066;-87
2020/12/17 00:17:57;;;;;;;0.52;0.25;;;10.50;89.90;;;;;;4100637;34;20129;-88
2020/12/17 00:20:23;;;;;;;0.40;0.35;;;10.40;89.90;;;;;;4111860;27;20055;-89
2020/12/17 00:22:56;;;;;;;3.83;0.20;;;10.40;90.00;;;;;;4137923;27;20111;-89
2020/12/17 00:25:23;;;;;;;0.22;0.08;;;10.40;90.00;;;;;;4119566;27;20317;-89
2020/12/17 00:27:50;;;;;;;0.70;0.22;;;10.40;90.00;;;;;;4113889;34;20063;-88
2020/12/17 00:30:17;;;;;;;0.10;0.00;;;10.40;90.00;;;;;;4114126;27;20423;-89
2020/12/17 00:32:51;;;;;;;0.32;0.20;;;10.30;90.10;;;;;;4114163;34;20472;-89
2020/12/17 00:35:20;;;;;;;0.35;0.20;;;10.30;90.10;;;;;;4118453;27;20081;-87
2020/12/17 00:37:47;;;;;;;0.30;0.20;;;10.30;90.10;;;;;;4114413;34;20081;-88
2020/12/17 00:40:19;;;;;;;0.38;0.05;;;10.30;90.10;;;;;;4114185;34;20115;-88
2020/12/17 00:42:53;;;;;;;0.10;0.00;;;10.30;90.20;;;;;;4116612;34;20046;-88
2020/12/17 00:45:22;;;;;;;0.20;0.20;;;10.30;90.20;;;;;;4113751;27;20376;-87
2020/12/17 00:47:49;;;;;;;1.00;0.10;;;10.20;90.20;;;;;;4113008;27;20075;-88
2020/12/17 00:50:24;;;;;;;0.35;0.10;;;10.20;90.20;;;;;;4143559;27;20071;-86
2020/12/17 00:52:51;;;;;;;0.05;0.00;;;10.20;90.20;;;;;;4122048;34;20086;-89
2020/12/17 00:55:20;;;;;;;0.90;0.20;;;10.20;90.30;;;;;;4110076;34;20585;-89
2020/12/17 00:57:47;;;;;;;0.20;0.10;;;10.20;90.30;;;;;;4102287;35;20082;-88
2020/12/17 01:00:33;;;;;;;0.77;0.10;;;10.10;90.30;;;;;;4113484;27;20070;-89
2020/12/17 01:03:00;;;;;;;0.10;0.10;;;10.10;90.30;;;;;;4159975;27;20366;-89
2020/12/17 01:05:32;;;;;;;0.22;0.00;;;10.10;90.40;;;;;;4087850;35;20071;-89
2020/12/17 01:08:01;;;;;;;0.68;0.13;;;10.10;90.40;;;;;;4079999;27;20047;-88
2020/12/17 01:10:33;;;;;;;0.30;0.10;;;10.00;90.40;;;;;;4061877;35;20060;-88
2020/12/17 01:13:07;;;;;;;1.38;0.10;;;10.00;90.40;;;;;;4062764;35;20241;-88
2020/12/17 01:15:33;;;;;;;0.00;0.00;;;10.00;90.50;;;;;;4077759;27;20064;-88
2020/12/17 01:18:00;;;;;;;0.45;0.22;;;9.90;90.50;;;;;;4066091;27;20080;-89
2020/12/17 01:20:26;;;;;;;1.08;0.40;;;9.90;90.50;;;;;;4077778;27;20472;-88
2020/12/17 01:22:54;;;;;;;0.88;0.28;;;9.90;90.50;;;;;;4063615;35;20044;-89
2020/12/17 01:25:39;;;;;;;;;;;;;;;;;;;;;
2020/12/17 01:28:13;;;;;;;0.10;0.10;;;9.80;90.60;;;;;;4071782;27;20040;-88
2020/12/17 01:33:07;;;;;;;0.60;0.20;;;9.70;90.70;;;;;;4141831;27;20050;-88
2020/12/17 01:35:34;;;;;;;0.00;0.00;;;9.60;90.80;;;;;;4097348;27;20420;-88
2020/12/17 01:38:00;;;;;;;0.32;0.10;;;9.60;90.80;;;;;;4102912;27;20035;-87
2020/12/17 01:40:30;;;;;;;0.00;0.00;;;9.50;90.90;;;;;;4112609;27;20070;-88
2020/12/17 01:42:56;;;;;;;0.00;0.00;;;9.50;91.00;;;;;;4093700;27;20097;-88
2020/12/17 01:45:23;;;;;;;0.47;0.17;;;9.40;91.00;;;;;;4131889;27;20130;-87
2020/12/17 01:47:52;;;;;;;0.98;0.30;;;9.40;91.10;;;;;;4101319;34;20083;-88
2020/12/17 01:50:29;;;;;;;0.47;0.20;;;9.30;91.20;;;;;;4105881;27;20075;-89
2020/12/17 01:52:57;;;;;;;0.28;0.20;;;9.30;91.20;;;;;;4099209;27;20067;-89
2020/12/17 01:55:30;;;;;;;0.10;0.00;;;9.30;91.20;;;;;;4091470;35;20090;-91
2020/12/17 01:58:04;;;;;;;1.08;0.13;;;9.30;91.10;;;;;;4102983;27;20054;-88
2020/12/17 02:00:35;;;;;;;0.32;0.20;;;9.30;91.10;;;;;;4090576;28;20063;-88
2020/12/17 02:03:07;;;;;;;0.32;0.10;;;9.30;91.00;;;;;;4104811;27;20418;-90
2020/12/17 02:05:34;;;;;;;0.10;0.10;;;9.30;91.00;;;;;;4096648;27;20386;-90
2020/12/17 02:08:06;;;;;;;0.28;0.20;;;9.30;90.90;;;;;;4075981;35;20426;-89
2020/12/17 02:10:33;;;;;;;0.00;0.00;;;9.30;90.90;;;;;;4063387;35;20104;-90
2020/12/17 02:12:59;;;;;;;0.00;0.00;;;9.30;90.90;;;;;;4074109;35;20088;-89
2020/12/17 02:15:28;;;;;;;0.00;0.00;;;9.30;90.90;;;;;;4065673;28;20383;-90
2020/12/17 02:17:55;;;;;;;0.13;0.10;;;9.30;90.90;;;;;;4064019;35;20080;-90
2020/12/17 02:20:24;;;;;;;1.02;0.10;;;9.30;90.90;;;;;;4064393;35;20041;-90
2020/12/17 02:22:53;;;;;;;0.38;0.00;;;9.30;90.90;;;;;;4067905;27;20644;-91
2020/12/17 02:25:22;;;;;;;0.30;0.10;;;9.20;90.90;;;;;;4051548;27;20069;-90
2020/12/17 02:27:52;;;;;;;0.15;0.00;;;9.20;90.90;;;;;;4091077;27;20095;-89
2020/12/17 02:30:18;;;;;;;0.13;0.00;;;9.20;90.90;;;;;;4066494;27;20068;-89
2020/12/17 02:32:50;;;;;;;0.60;0.00;;;9.20;90.90;;;;;;4072204;27;20064;-89
2020/12/17 02:35:17;;;;;;;0.03;0.00;;;9.20;90.90;;;;;;4077098;27;20511;-89
2020/12/17 02:37:46;;;;;;;0.05;0.05;;;9.20;90.90;;;;;;4061793;35;20040;-90
2020/12/17 02:40:15;;;;;;;0.43;0.13;;;9.30;90.90;;;;;;4075015;27;20088;-88
2020/12/17 02:42:41;;;;;;;10.25;0.38;;;9.30;90.80;;;;;;4075013;35;20511;-91
2020/12/17 02:45:11;;;;;;;0.00;0.00;;;9.30;90.80;;;;;;4086684;27;20435;-89
2020/12/17 02:47:43;;;;;;;0.95;0.15;;;9.30;90.70;;;;;;4089073;27;20093;-91
2020/12/17 02:50:16;;;;;;;0.00;0.00;;;9.30;90.70;;;;;;4116170;27;20086;-89
2020/12/17 02:52:42;;;;;;;1.75;0.10;;;9.30;90.70;;;;;;4111605;34;20423;-90
2020/12/17 02:55:09;;;;;;;0.00;0.00;;;9.30;90.70;;;;;;4123495;27;20078;-90
2020/12/17 02:57:35;;;;;;;0.00;0.00;;;9.30;90.70;;;;;;4117984;27;20086;-89
2020/12/17 03:03:54;;;;;;;0.03;0.00;;;9.30;90.70;;;;;;4118420;28;20062;-89
2020/12/17 03:06:21;;;;;;;0.47;0.17;;;9.20;90.70;;;;;;4099890;27;20064;-90
2020/12/17 03:08:50;;;;;;;0.00;0.00;;;9.20;90.70;;;;;;4080474;27;20071;-89
2020/12/17 03:11:22;;;;;;;0.22;0.00;;;9.20;90.80;;;;;;4102589;34;20094;-91
2020/12/17 03:13:52;;;;;;;0.43;0.22;;;9.20;90.80;;;;;;4138403;27;20506;-90
2020/12/17 03:16:24;;;;;;;0.50;0.35;;;9.20;90.80;;;;;;4114316;27;20082;-91
2020/12/17 03:18:51;;;;;;;0.00;0.00;;;9.20;90.80;;;;;;4112419;34;20051;-91
2020/12/17 03:21:17;;;;;;;0.60;0.20;;;9.20;90.80;;;;;;4111639;35;20083;-90
2020/12/17 03:23:43;;;;;;;0.03;0.00;;;9.20;90.80;;;;;;4110686;34;20082;-89
2020/12/17 03:26:10;;;;;;;0.03;0.03;;;9.10;90.80;;;;;;4112188;34;20158;-90
2020/12/17 03:28:36;;;;;;;0.00;0.00;;;9.10;90.80;;;;;;4115552;34;20419;-90
2020/12/17 03:31:04;;;;;;;0.00;0.00;;;9.10;90.80;;;;;;4120778;27;20357;-92
2020/12/17 03:33:36;;;;;;;0.00;0.00;;;9.10;90.80;;;;;;4112140;27;20113;-91
2020/12/17 03:36:03;;;;;;;0.60;0.22;;;9.10;90.90;;;;;;4113622;27;20091;-90
2020/12/17 03:41:24;;;;;;;0.00;0.00;;;9.10;90.90;;;;;;4111053;35;20090;-91
2020/12/17 03:43:56;;;;;;;2.05;0.30;;;9.00;90.80;;;;;;4105849;34;20079;-89
2020/12/17 03:46:23;;;;;;;0.00;0.00;;;9.00;90.80;;;;;;4127121;27;20210;-90
2020/12/17 03:48:55;;;;;;;0.00;0.00;;;9.00;90.80;;;;;;4104076;34;20094;-89
2020/12/17 03:51:22;;;;;;;0.00;0.00;;;9.00;90.90;;;;;;4125602;35;20573;-89
2020/12/17 03:53:52;;;;;;;0.00;0.00;;;9.00;90.90;;;;;;4118100;27;20478;-88
2020/12/17 03:56:33;;;;;;;0.10;0.08;;;9.00;90.90;;;;;;4094986;34;20074;-88
2020/12/17 04:01:30;;;;;;;0.00;0.00;;;8.90;90.90;;;;;;4130388;27;20081;-89
2020/12/17 04:04:03;;;;;;;1.55;0.10;;;9.00;90.90;;;;;;4116408;34;20058;-91
2020/12/17 04:09:20;;;;;;;;;;;;;;;;;;;;;
2020/12/17 04:11:59;;;;;;;0.08;0.05;;;9.00;90.80;;;;;;4110298;34;20321;-90
2020/12/17 04:14:26;;;;;;;0.00;0.00;;;9.00;90.80;;;;;;4126285;27;20094;-88
2020/12/17 04:19:25;;;;;;;1.10;0.20;;;9.00;90.80;;;;;;4136592;27;20059;-89
2020/12/17 04:21:55;;;;;;;2.92;0.10;;;9.00;90.80;;;;;;4109574;27;20109;-90
2020/12/17 04:26:53;;;;;;;0.00;0.00;;;9.10;90.70;;;;;;4141846;27;20086;-88
2020/12/17 04:29:26;;;;;;;11.98;0.32;;;9.10;90.60;;;;;;4128781;34;20051;-89
2020/12/17 04:31:58;;;;;;;0.90;0.08;;;9.20;90.60;;;;;;4127583;27;20106;-88
2020/12/17 04:34:29;;;;;;;0.00;0.00;;;9.20;90.60;;;;;;4122293;27;20114;-89
2020/12/17 04:36:58;;;;;;;0.00;0.00;;;9.30;90.50;;;;;;4120867;34;20366;-90
2020/12/17 04:39:28;;;;;;;0.03;0.00;;;9.30;90.50;;;;;;4149785;27;20419;-89
2020/12/17 04:42:00;;;;;;;0.98;0.43;;;9.30;90.50;;;;;;4132055;27;20078;-89
2020/12/17 04:44:27;;;;;;;0.00;0.00;;;9.30;90.50;;;;;;4123401;27;20584;-90
2020/12/17 04:47:04;;;;;;;0.00;0.00;;;9.30;90.40;;;;;;4134925;27;20070;-90
2020/12/17 04:52:05;;;;;;;0.00;0.00;;;9.40;90.40;;;;;;4133327;27;20054;-91
2020/12/17 04:54:38;;;;;;;0.00;0.00;;;9.40;90.40;;;;;;4110321;27;20087;-88
2020/12/17 04:57:12;;;;;;;0.00;0.00;;;9.30;90.40;;;;;;4100866;27;20410;-88
2020/12/17 04:59:48;;;;;;;1.10;0.00;;;9.30;90.40;;;;;;4106289;35;20078;-88
2020/12/17 05:02:24;;;;;;;1.55;0.22;;;9.30;90.40;;;;;;4109058;28;20524;-87
2020/12/17 05:04:54;;;;;;;0.00;0.00;;;9.30;90.50;;;;;;4132881;34;20062;-89
2020/12/17 05:07:29;;;;;;;0.00;0.00;;;9.30;90.50;;;;;;4121444;34;20448;-88
2020/12/17 05:10:01;;;;;;;0.00;0.00;;;9.20;90.50;;;;;;4114261;34;20063;-89
2020/12/17 05:12:31;;;;;;;0.00;0.00;;;9.20;90.50;;;;;;4111143;34;20675;-89
2020/12/17 05:15:00;;;;;;;0.00;0.00;;;9.20;90.50;;;;;;4113129;34;20078;-89
2020/12/17 05:17:33;;;;;;;0.00;0.00;;;9.20;90.50;;;;;;4121411;27;20074;-89
2020/12/17 05:19:59;;;;;;;0.00;0.00;;;9.20;90.60;;;;;;4124098;34;20086;-90
2020/12/17 05:22:25;;;;;;;0.00;0.00;;;9.20;90.60;;;;;;4112968;34;20093;-89
2020/12/17 05:24:57;;;;;;;0.00;0.00;;;9.20;90.60;;;;;;4113296;34;20330;-87
2020/12/17 05:27:28;;;;;;;0.00;0.00;;;9.20;90.60;;;;;;4115428;34;20079;-89
2020/12/17 05:29:55;;;;;;;0.63;0.08;;;9.20;90.60;;;;;;4140152;27;20043;-90
2020/12/17 05:32:26;;;;;;;0.30;0.00;;;9.20;90.60;;;;;;4127034;27;20087;-89
2020/12/17 05:34:53;;;;;;;0.10;0.00;;;9.20;90.60;;;;;;4139649;27;20095;-89
2020/12/17 05:40:17;;;;;;;0.00;0.00;;;9.20;90.60;;;;;;4113546;34;20078;-88
2020/12/17 05:42:44;;;;;;;0.35;0.10;;;9.10;90.60;;;;;;4125632;34;20071;-89
2020/12/17 05:45:24;;;;;;;0.10;0.00;;;9.10;90.60;;;;;;4128081;27;20082;-88
2020/12/17 05:48:18;;;;;;;0.00;0.00;;;9.10;90.60;;;;;;4118506;27;20046;-88
2020/12/17 05:51:00;;;;;;;0.43;0.10;;;9.20;90.60;;;;;;4137036;34;20105;-88
2020/12/17 05:56:08;;;;;;;0.47;0.47;;;9.20;90.50;;;;;;4143424;27;20031;-88
2020/12/17 05:58:47;;;;;;;0.00;0.00;;;9.20;90.50;;;;;;4136527;34;20086;-88
2020/12/17 06:01:41;;;;;;;0.00;0.00;;;9.30;90.50;;;;;;4114104;27;20074;-88
2020/12/17 06:04:19;;;;;;;0.15;0.10;;;9.30;90.50;;;;;;4135521;34;20043;-88
2020/12/17 06:07:14;;;;;;;0.00;0.00;;;9.30;90.40;;;;;;4115705;27;20534;-89
2020/12/17 06:10:18;;;;;;;0.00;0.00;;;9.20;90.30;;;;;;4136315;27;20114;-89
2020/12/17 06:12:37;;;;;;;0.32;0.00;;;9.30;90.40;;;;;;4111972;34;20071;-86
2020/12/17 06:15:06;;;;;;;0.00;0.00;;;9.30;90.30;;;;;;4114314;27;20111;-88
2020/12/17 06:17:37;;;;;;;0.00;0.00;;;9.30;90.30;;;;;;4142305;27;20070;-89
2020/12/17 06:20:06;;;;;;;0.40;0.00;;;9.30;90.30;;;;;;4106903;27;20182;-87
2020/12/17 06:22:36;;;;;;;0.15;0.00;;;9.30;90.40;;;;;;4127129;34;20078;-88
2020/12/17 06:25:03;;;;;;;0.00;0.00;;;9.30;90.40;;;;;;4118168;27;20042;-87
2020/12/17 06:27:31;;;;;;;0.00;0.00;;;9.30;90.40;;;;;;4148614;27;20079;-89
2020/12/17 06:30:41;;;;;;;0.05;0.00;;;9.20;90.40;;;;;;4122664;34;20066;-88
2020/12/17 06:33:08;;;;;;;0.00;0.00;;;9.20;90.50;;;;;;4136476;28;20082;-89
2020/12/17 06:35:53;;;;;;;0.00;0.00;;;9.20;90.60;;;;;;4143940;27;20081;-88
2020/12/17 06:38:28;;;;;;;0.00;0.00;;;9.10;90.60;;;;;;4143921;27;20042;-90
2020/12/17 06:40:55;;;;;;;0.05;0.00;;;9.10;90.60;;;;;;4125698;27;20078;-87
2020/12/17 06:43:32;;;;;;;0.20;0.00;;;9.10;90.70;;;;;;4121741;27;20058;-87
2020/12/17 06:46:53;;;;;;;0.00;0.00;;;9.10;90.80;;;;;;4115731;34;20083;-89
2020/12/17 06:49:45;;;;;;;1.65;0.15;;;9.00;90.80;;;;;;4144266;27;20074;-89
2020/12/17 06:52:28;;;;;;;0.00;0.00;;;9.00;91.20;;;;;;4139623;34;20054;-88
2020/12/17 06:54:56;;;;;;;1.25;0.38;;;9.00;90.80;;;;;;4128371;34;20050;-89
2020/12/17 07:00:15;;;;;;;0.00;0.00;;;8.90;90.80;;;;;;4123233;27;20078;-89
2020/12/17 07:02:41;;;;;;;0.08;0.08;;;8.90;90.80;;;;;;4143679;27;20039;-88
2020/12/17 07:05:36;;;;;;;0.28;0.00;;;8.90;90.90;;;;;;4120912;35;20094;-88
2020/12/17 07:08:05;;;;;;;0.00;0.00;;;8.90;90.90;;;;;;4109619;35;20047;-88
2020/12/17 07:10:32;;;;;;;0.00;0.00;;;8.90;90.90;;;;;;4144234;27;20082;-89
2020/12/17 07:13:11;;;;;;;0.08;0.00;;;8.90;90.90;;;;;;4136820;27;21008;-89
2020/12/17 07:15:41;;;;;;;0.63;0.20;;;8.90;90.80;;;;;;4133167;27;20046;-88
2020/12/17 07:18:32;;;;;;;0.00;0.00;;;8.90;90.80;;;;;;4106705;27;20042;-88
2020/12/17 07:21:06;;;;;;;0.00;0.00;;;9.00;90.80;;;;;;4113149;34;20105;-88
2020/12/17 07:23:36;;;;;;;0.20;0.15;;;9.00;90.80;;;;;;4112846;27;20083;-88
2020/12/17 07:26:12;;;;;;;1.55;0.20;;;9.00;90.70;;;;;;4100240;27;20063;-88
2020/12/17 07:28:38;;;;;;;0.30;0.30;;;9.00;90.70;;;;;;4124969;27;20098;-88
2020/12/17 07:31:08;;;;;;;0.22;0.10;;;9.00;90.70;;;;;;4108904;27;20103;-89
2020/12/17 07:33:44;;;;;;;0.20;0.10;;;9.00;90.70;;;;;;4113513;34;20063;-88
2020/12/17 07:36:11;;;;;;;0.00;0.00;;;9.00;90.70;;;;;;4135939;27;20071;-88
2020/12/17 07:38:41;;;;;;;0.22;0.20;;;9.00;90.70;;;;;;4133215;27;20039;-89
2020/12/17 07:41:42;;;;;;;0.00;0.00;;;9.00;90.70;;;;;;4126451;27;20077;-89
2020/12/17 07:44:09;;;;;;;0.00;0.00;;;9.00;90.70;;;;;;4138208;27;20078;-88
2020/12/17 07:46:48;;;;;;;0.00;0.00;;;9.00;90.70;;;;;;4121531;27;20086;-87
2020/12/17 07:49:38;;;;;;;0.00;0.00;;;9.00;90.70;;;;;;4118286;34;20081;-89
2020/12/17 07:52:30;;;;;;;13.55;0.80;;;9.00;90.70;;;;;;4120861;34;20130;-85
2020/12/17 07:55:02;;;;;;;0.00;0.00;;;9.00;90.70;;;;;;4127573;27;20083;-87
2020/12/17 07:57:32;;;;;;;0.00;0.00;;;9.00;90.70;;;;;;4137448;27;20469;-86
2020/12/17 08:00:07;;;;;;;0.10;0.10;;;9.00;90.70;;;;;;4116238;34;20553;-88
2020/12/17 08:02:36;;;;;;;0.17;0.10;;;9.00;90.70;;;;;;4122502;27;20059;-89
2020/12/17 08:05:04;;;;;;;0.30;0.05;;;9.00;90.70;;;;;;4131805;27;20423;-88
2020/12/17 08:07:30;;;;;;;0.00;0.00;;;9.00;90.70;;;;;;4119660;27;20431;-89
2020/12/17 08:10:03;;;;;;;0.88;0.43;;;9.00;90.70;;;;;;4121964;27;20083;-90
2020/12/17 08:15:09;;;;;;;3.25;1.20;;;9.10;90.60;;;;;;4167541;27;20466;-89
2020/12/17 08:17:35;;;;;;;0.95;0.32;;;9.10;90.60;;;;;;4115603;27;20078;-89
2020/12/17 08:20:02;;;;;;;18.20;0.57;;;9.20;90.50;;;;;;4110934;34;20070;-88
2020/12/17 08:22:40;;;;;;;1.17;0.45;;;9.20;90.50;;;;;;4112602;34;20042;-89
2020/12/17 08:25:09;;;;;;;1.02;0.30;;;9.30;90.40;;;;;;4133779;27;20208;-89
2020/12/17 08:27:38;;;;;;;0.20;0.00;;;9.40;90.40;;;;;;4113977;27;20067;-88
2020/12/17 08:30:05;;;;;;;0.25;0.00;;;9.40;90.20;;;;;;4107270;27;20093;-89
2020/12/17 08:32:31;;;;;;;0.20;0.13;;;9.40;90.20;;;;;;4119601;27;20067;-88
2020/12/17 08:34:58;;;;;;;0.00;0.00;;;9.50;90.20;;;;;;4116134;35;20067;-88
2020/12/17 08:37:30;;;;;;;0.10;0.10;;;9.50;90.20;;;;;;4107992;27;20434;-87
2020/12/17 08:40:31;;;;;;;1.23;0.10;;;9.50;90.10;;;;;;4093985;35;20070;-86
2020/12/17 08:43:15;;;;;;;1.85;0.47;;;9.60;90.10;;;;;;4103087;27;20094;-87
2020/12/17 08:45:47;;;;;;;2.50;0.85;;;9.60;90.10;;;;;;4076553;28;20072;-88
2020/12/17 08:48:17;;;;;;;2.00;0.73;;;9.60;90.10;;;;;;4078885;27;20076;-87
2020/12/17 08:50:53;;;;;;;1.08;0.30;;;9.70;90.10;;;;;;4069976;35;20434;-87
2020/12/17 08:53:20;;;;;;;1.38;0.45;;;9.70;90.00;;;;;;4097806;27;20086;-86
2020/12/17 08:56:03;;;;;;;1.30;0.55;;;9.60;90.00;;;;;;4093959;27;20397;-85
2020/12/17 08:58:30;;;;;;;52.25;2.95;;;9.50;90.10;;;;;;4109519;27;20482;-86
2020/12/17 09:00:56;;;;;;;0.10;0.03;;;9.50;90.20;;;;;;4096527;28;20454;-87
2020/12/17 09:03:23;;;;;;;0.82;0.45;;;9.50;90.30;;;;;;4109480;27;20067;-85
2020/12/17 09:06:05;;;;;;;0.10;0.00;;;9.50;90.30;;;;;;4102258;34;20090;-85
2020/12/17 09:08:32;;;;;;;0.10;0.00;;;9.50;90.30;;;;;;4107135;27;20375;-85
2020/12/17 09:10:58;;;;;;;1.98;0.20;;;9.50;90.30;;;;;;4100952;27;20113;-86
2020/12/17 09:13:25;;;;;;;0.00;0.00;;;9.50;90.30;;;;;;4095158;35;20396;-87
2020/12/17 09:16:01;;;;;;;6.13;0.43;;;9.50;90.30;;;;;;4090690;28;20114;-87
2020/12/17 09:18:28;;;;;;;0.40;0.35;;;9.60;90.30;;;;;;4102957;27;20078;-86
2020/12/17 09:21:11;;;;;;;2.00;0.35;;;9.60;90.20;;;;;;4082970;27;20079;-85
2020/12/17 09:23:40;;;;;;;0.00;0.00;;;9.60;90.20;;;;;;4107151;27;20087;-85
2020/12/17 09:26:13;;;;;;;0.45;0.20;;;9.70;90.20;;;;;;4095865;27;20110;-86
2020/12/17 09:28:50;;;;;;;3.58;0.17;;;9.80;90.10;;;;;;4094103;27;20099;-86
2020/12/17 09:31:26;;;;;;;0.10;0.10;;;9.80;90.10;;;;;;4094129;27;20091;-86
2020/12/17 09:34:19;;;;;;;0.32;0.10;;;9.90;90.00;;;;;;4106769;27;20040;-85
2020/12/17 09:36:55;;;;;;;0.43;0.00;;;9.90;89.80;;;;;;4093666;27;20623;-86
2020/12/17 09:39:21;;;;;;;0.40;0.20;;;10.00;89.70;;;;;;4097248;27;20106;-85
2020/12/17 09:42:16;;;;;;;0.17;0.13;;;10.10;89.50;;;;;;4095827;27;20426;-86
2020/12/17 09:44:49;;;;;;;0.10;0.00;;;10.20;89.30;;;;;;4094705;27;20079;-86
2020/12/17 09:47:27;;;;;;;2.17;0.43;;;10.30;89.20;;;;;;4092699;28;20091;-86
2020/12/17 09:49:53;;;;;;;0.60;0.20;;;10.40;89.00;;;;;;4087255;27;20116;-86
2020/12/17 09:52:25;;;;;;;1.23;0.10;;;10.40;88.80;;;;;;4109580;34;20085;-86
2020/12/17 09:54:51;;;;;;;0.20;0.00;;;10.60;88.70;;;;;;4099397;27;20085;-87
2020/12/17 09:57:18;;;;;;;0.00;0.00;;;10.70;88.30;;;;;;4120874;34;20090;-88
2020/12/17 09:59:47;;;;;;;0.00;0.00;;;10.80;88.20;;;;;;4112983;27;20109;-87
2020/12/17 10:02:14;;;;;;;0.85;0.20;;;10.80;88.00;;;;;;4141276;27;20081;-86
2020/12/17 10:04:46;;;;;;;5.50;0.63;;;10.90;88.00;;;;;;4132167;27;20417;-86
2020/12/17 10:07:18;;;;;;;1.08;0.13;;;11.00;87.90;;;;;;4134344;27;20039;-86
2020/12/17 10:09:47;;;;;;;0.00;0.00;;;11.10;87.90;;;;;;4135460;27;20078;-86
2020/12/17 10:12:18;;;;;;;0.35;0.30;;;11.10;87.70;;;;;;4120658;27;20074;-86
2020/12/17 10:14:47;;;;;;;1.17;0.10;;;11.20;87.60;;;;;;4137255;27;20054;-87
2020/12/17 10:17:14;;;;;;;1.98;0.17;;;11.40;87.30;;;;;;4133870;27;20039;-85
2020/12/17 10:19:42;;;;;;;1.40;1.30;;;11.50;87.10;;;;;;4134832;27;20078;-87
2020/12/17 10:22:08;;;;;;;0.15;0.15;;;11.70;86.90;;;;;;4134682;34;20093;-84
2020/12/17 10:24:34;;;;;;;0.30;0.10;;;11.90;86.60;;;;;;4134884;34;20086;-85
2020/12/17 10:27:01;;;;;;;0.28;0.10;;;12.20;86.00;;;;;;4136791;34;20102;-87
2020/12/17 10:29:28;;;;;;;3.05;0.30;;;12.40;85.40;;;;;;4123234;34;20042;-86
2020/12/17 10:32:01;;;;;;;4.13;0.10;;;12.50;85.10;;;;;;4149362;27;20039;-86
2020/12/17 10:34:27;;;;;;;0.05;0.00;;;12.60;85.20;;;;;;4157360;27;20086;-87
2020/12/17 10:36:53;;;;;;;1.65;0.10;;;12.60;85.20;;;;;;4134379;34;20496;-88
2020/12/17 10:39:20;;;;;;;0.50;0.10;;;12.60;85.40;;;;;;4135515;27;20050;-87
2020/12/17 10:41:47;;;;;;;0.85;0.30;;;12.50;85.50;;;;;;4132255;34;20098;-86
2020/12/17 10:44:14;;;;;;;0.55;0.45;;;12.50;85.70;;;;;;4130594;34;20070;-86
2020/12/17 10:46:40;;;;;;;1.25;0.88;;;12.50;85.90;;;;;;4130302;27;20079;-85
2020/12/17 10:49:07;;;;;;;0.25;0.10;;;12.60;86.20;;;;;;4133439;34;20086;-88
2020/12/17 10:51:42;;;;;;;0.25;0.20;;;12.70;85.90;;;;;;4131841;34;20469;-86
2020/12/17 10:54:14;;;;;;;1.60;0.10;;;12.80;85.70;;;;;;4144545;26;20134;-86
2020/12/17 10:56:47;;;;;;;0.80;0.00;;;12.90;85.60;;;;;;4128049;27;20047;-88
2020/12/17 10:59:14;;;;;;;0.20;0.10;;;12.90;85.60;;;;;;4099290;34;20078;-88
2020/12/17 11:01:40;;;;;;;0.28;0.17;;;12.90;85.60;;;;;;4120067;27;20079;-89
2020/12/17 11:04:07;;;;;;;0.15;0.10;;;12.90;85.70;;;;;;4109507;27;20122;-89
2020/12/17 11:06:33;;;;;;;0.50;0.50;;;13.00;85.60;;;;;;4116737;35;20079;-88
2020/12/17 11:09:00;;;;;;;0.00;0.00;;;13.20;85.40;;;;;;4075927;27;20528;-89
2020/12/17 11:11:26;;;;;;;1.88;0.20;;;13.40;84.90;;;;;;4116329;34;20054;-89
2020/12/17 11:13:53;;;;;;;0.10;0.10;;;13.60;84.40;;;;;;4116369;34;20079;-86
2020/12/17 11:16:27;;;;;;;0.30;0.05;;;13.80;83.80;;;;;;4115197;27;20079;-88
2020/12/17 11:18:53;;;;;;;0.68;0.20;;;14.00;83.50;;;;;;4094950;34;20040;-88
2020/12/17 11:21:20;;;;;;;0.10;0.10;;;14.10;83.20;;;;;;4118056;35;20094;-88
2020/12/17 11:23:50;;;;;;;0.47;0.20;;;14.20;83.10;;;;;;4093883;34;20066;-87
2020/12/17 11:26:16;;;;;;;0.00;0.00;;;14.30;83.10;;;;;;4110007;27;20083;-87
2020/12/17 11:28:42;;;;;;;4.13;0.20;;;14.40;83.00;;;;;;4116443;35;20071;-88
2020/12/17 11:31:14;;;;;;;0.00;0.00;;;14.50;82.50;;;;;;4134797;27;20078;-89
2020/12/17 11:33:44;;;;;;;0.90;0.20;;;14.70;82.30;;;;;;4120561;34;20081;-87
2020/12/17 11:36:13;;;;;;;4.28;0.20;;;14.70;82.20;;;;;;4117024;34;20071;-88
2020/12/17 11:38:42;;;;;;;0.70;0.30;;;14.80;82.10;;;;;;4116834;34;20079;-88
2020/12/17 11:41:13;;;;;;;0.50;0.50;;;14.80;82.00;;;;;;4121149;27;20459;-88
2020/12/17 11:43:46;;;;;;;0.20;0.10;;;14.90;82.30;;;;;;4104072;35;20085;-87
2020/12/17 11:46:22;;;;;;;0.00;0.00;;;14.90;82.40;;;;;;4092881;27;20167;-87
2020/12/17 11:48:51;;;;;;;0.00;0.00;;;15.20;82.20;;;;;;4118935;27;20106;-88
2020/12/17 11:51:18;;;;;;;0.45;0.20;;;15.40;81.70;;;;;;4122069;27;20109;-89
2020/12/17 11:53:47;;;;;;;0.08;0.00;;;15.60;81.10;;;;;;4116119;35;20459;-87
2020/12/17 11:56:19;;;;;;;0.30;0.20;;;15.60;81.10;;;;;;4128055;27;20098;-88
2020/12/17 11:58:46;;;;;;;0.00;0.00;;;15.70;81.30;;;;;;4102406;35;20095;-88
2020/12/17 12:01:18;;;;;;;0.10;0.10;;;15.60;81.50;;;;;;4117081;27;20079;-88
2020/12/17 12:03:45;;;;;;;0.00;0.00;;;15.60;81.80;;;;;;4092561;35;20079;-87
2020/12/17 12:06:20;;;;;;;0.00;0.00;;;15.60;81.80;;;;;;4104671;27;20083;-88
2020/12/17 12:08:46;;;;;;;0.28;0.00;;;15.40;82.40;;;;;;4102800;27;20546;-89
2020/12/17 12:11:17;;;;;;;0.00;0.00;;;15.20;83.00;;;;;;4107264;27;20078;-88
2020/12/17 12:13:51;;;;;;;0.10;0.10;;;15.00;83.50;;;;;;4097813;27;20245;-89
2020/12/17 12:16:19;;;;;;;0.00;0.00;;;15.00;83.70;;;;;;4101957;28;20075;-87
2020/12/17 12:18:48;;;;;;;0.00;0.00;;;14.80;84.00;;;;;;4091293;35;20098;-87
2020/12/17 12:21:20;;;;;;;0.00;0.00;;;14.80;84.20;;;;;;4103042;35;20406;-88
2020/12/17 12:23:46;;;;;;;0.00;0.00;;;14.70;84.30;;;;;;4102519;27;20520;-87
2020/12/17 12:26:14;;;;;;;0.00;0.00;;;14.80;84.20;;;;;;4106497;27;20098;-88
2020/12/17 12:28:40;;;;;;;0.00;0.00;;;14.80;84.10;;;;;;4105977;27;20096;-88
2020/12/17 12:31:07;;;;;;;0.00;0.00;;;14.80;84.00;;;;;;4109824;27;20082;-88
2020/12/17 12:34:11;;;;;;;8.02;0.10;;;14.80;84.00;;;;;;4115976;35;20410;-87
2020/12/17 12:36:41;;;;;;;0.75;0.00;;;14.80;83.90;;;;;;4103459;35;20070;-88
2020/12/17 12:39:07;;;;;;;0.00;0.00;;;14.70;84.10;;;;;;4114857;35;20093;-87
2020/12/17 12:42:00;;;;;;;0.65;0.13;;;14.60;84.60;;;;;;4102298;35;20086;-87
2020/12/17 12:44:32;;;;;;;0.00;0.00;;;14.60;84.80;;;;;;4106302;27;20075;-89
2020/12/17 12:47:18;;;;;;;0.00;0.00;;;14.70;84.50;;;;;;4104315;27;20095;-87
2020/12/17 12:53:12;;;;;;;0.00;0.00;;;15.00;83.70;;;;;;4087098;35;20458;-87
2020/12/17 12:56:00;;;;;;;0.08;0.00;;;15.10;83.10;;;;;;4071683;27;20079;-91
2020/12/17 12:58:52;;;;;;;0.13;0.03;;;15.20;83.00;;;;;;4076158;35;20443;-90
2020/12/17 13:01:19;;;;;;;0.03;0.03;;;15.30;83.70;;;;;;4090423;27;20095;-88
2020/12/17 13:06:23;;;;;;;0.22;0.10;;;15.30;82.60;;;;;;4127542;34;20497;-88
2020/12/17 13:08:53;;;;;;;0.17;0.17;;;15.30;83.10;;;;;;4107147;34;20086;-88
2020/12/17 13:11:22;;;;;;;0.00;0.00;;;15.10;83.40;;;;;;4115054;34;20093;-88
2020/12/17 13:13:55;;;;;;;0.10;0.00;;;14.90;84.00;;;;;;4123368;27;20114;-89
2020/12/17 13:16:25;;;;;;;0.00;0.00;;;14.90;84.40;;;;;;4127663;27;20693;-89
2020/12/17 13:18:59;;;;;;;0.20;0.08;;;14.80;84.50;;;;;;4131557;27;20379;-89
2020/12/17 13:21:34;;;;;;;0.00;0.00;;;14.80;84.50;;;;;;4100637;35;20250;-88
2020/12/17 13:24:13;;;;;;;0.17;0.10;;;14.80;84.70;;;;;;4101813;34;20086;-88
2020/12/17 13:26:43;;;;;;;0.00;0.00;;;14.70;84.70;;;;;;4106441;27;20079;-88
2020/12/17 13:29:09;;;;;;;0.43;0.13;;;14.70;84.90;;;;;;4105658;34;20103;-88
2020/12/17 13:31:37;;;;;;;0.00;0.00;;;14.50;85.10;;;;;;4121781;27;20098;-88
2020/12/17 13:34:18;;;;;;;0.13;0.08;;;14.40;85.40;;;;;;4127971;34;20106;-88
2020/12/17 13:36:45;;;;;;;0.68;0.13;;;14.20;85.70;;;;;;4120679;27;20083;-87
2020/12/17 13:39:12;;;;;;;0.00;0.00;;;14.10;86.10;;;;;;4132659;27;20090;-88
2020/12/17 13:41:41;;;;;;;0.00;0.00;;;14.20;86.20;;;;;;4117758;34;20067;-87
2020/12/17 13:44:10;;;;;;;0.88;0.00;;;14.30;85.70;;;;;;4143062;27;20081;-88
2020/12/17 13:46:37;;;;;;;0.00;0.00;;;14.40;85.40;;;;;;4128349;27;20074;-88
2020/12/17 13:49:06;;;;;;;0.20;0.20;;;14.50;85.10;;;;;;4117860;34;20073;-88
2020/12/17 13:51:32;;;;;;;1.65;0.00;;;14.50;84.90;;;;;;4114774;27;20396;-87
2020/12/17 13:53:59;;;;;;;0.00;0.00;;;14.50;85.00;;;;;;4097560;27;20248;-88
2020/12/17 13:56:31;;;;;;;0.00;0.00;;;14.40;85.00;;;;;;4098232;27;20087;-88